sensor_id;sensor_type;location;lat;lon;timestamp;pressure;altitude;pressure_sealevel;temperature;humidity
35291;BME280;21411;50.024;19.220;2022-08-01T00:01:08;98729.94;;;14.61;100.00
35291;BME280;21411;50.024;19.220;2022-08-01T00:03:34;98729.79;;;14.59;100.00
35291;BME280;21411;50.024;19.220;2022-08-01T00:06:00;98728.76;;;14.56;100.00
35291;BME280;21411;50.024;19.220;2022-08-01T00:08:26;98728.67;;;14.53;100.00
35291;BME280;21411;50.024;19.220;2022-08-01T00:10:52;98724.77;;;14.50;100.00
35291;BME280;21411;50.024;19.220;2022-08-01T00:13:18;98723.75;;;14.47;100.00
35291;BME280;21411;50.024;19.220;2022-08-01T00:15:44;98725.80;;;14.45;100.00
35291;BME280;21411;50.024;19.220;2022-08-01T00:18:10;98724.96;;;14.42;100.00
35291;BME280;21411;50.024;19.220;2022-08-01T00:20:36;98724.25;;;14.40;100.00
35291;BME280;21411;50.024;19.220;2022-08-01T00:23:03;98722.46;;;14.38;100.00
35291;BME280;21411;50.024;19.220;2022-08-01T00:25:29;98714.47;;;14.35;100.00
35291;BME280;21411;50.024;19.220;2022-08-01T00:27:55;98716.31;;;14.33;100.00
35291;BME280;21411;50.024;19.220;2022-08-01T00:30:20;98710.83;;;14.30;100.00
35291;BME280;21411;50.024;19.220;2022-08-01T00:32:46;98708.51;;;14.25;100.00
35291;BME280;21411;50.024;19.220;2022-08-01T00:35:13;98711.02;;;14.21;100.00
35291;BME280;21411;50.024;19.220;2022-08-01T00:37:39;98709.87;;;14.20;100.00
35291;BME280;21411;50.024;19.220;2022-08-01T00:40:06;98710.11;;;14.17;100.00
35291;BME280;21411;50.024;19.220;2022-08-01T00:42:32;98714.97;;;14.15;100.00
35291;BME280;21411;50.024;19.220;2022-08-01T00:44:58;98715.40;;;14.12;100.00
35291;BME280;21411;50.024;19.220;2022-08-01T00:47:24;98718.25;;;14.08;100.00
35291;BME280;21411;50.024;19.220;2022-08-01T00:49:50;98718.77;;;14.02;100.00
35291;BME280;21411;50.024;19.220;2022-08-01T00:52:16;98724.35;;;13.97;100.00
35291;BME280;21411;50.024;19.220;2022-08-01T00:54:43;98720.89;;;13.92;100.00
35291;BME280;21411;50.024;19.220;2022-08-01T00:57:09;98719.42;;;13.88;100.00
35291;BME280;21411;50.024;19.220;2022-08-01T00:59:36;98716.41;;;13.83;100.00
35291;BME280;21411;50.024;19.220;2022-08-01T01:02:02;98713.62;;;13.78;100.00
35291;BME280;21411;50.024;19.220;2022-08-01T01:04:29;98719.08;;;13.75;100.00
35291;BME280;21411;50.024;19.220;2022-08-01T01:07:29;98720.48;;;13.71;100.00
35291;BME280;21411;50.024;19.220;2022-08-01T01:15:36;98717.55;;;13.59;100.00
35291;BME280;21411;50.024;19.220;2022-08-01T01:18:22;98719.08;;;13.56;100.00
35291;BME280;21411;50.024;19.220;2022-08-01T01:31:49;98714.31;;;13.49;100.00
35291;BME280;21411;50.024;19.220;2022-08-01T01:34:20;98713.44;;;13.49;100.00
35291;BME280;21411;50.024;19.220;2022-08-01T01:36:48;98714.21;;;13.48;100.00
35291;BME280;21411;50.024;19.220;2022-08-01T01:39:16;98714.42;;;13.48;100.00
35291;BME280;21411;50.024;19.220;2022-08-01T01:41:44;98712.67;;;13.47;100.00
35291;BME280;21411;50.024;19.220;2022-08-01T01:44:11;98711.52;;;13.46;100.00
35291;BME280;21411;50.024;19.220;2022-08-01T01:46:38;98712.88;;;13.45;100.00
35291;BME280;21411;50.024;19.220;2022-08-01T01:49:05;98712.14;;;13.43;100.00
35291;BME280;21411;50.024;19.220;2022-08-01T01:51:37;98715.55;;;13.40;100.00
35291;BME280;21411;50.024;19.220;2022-08-01T01:54:05;98715.50;;;13.37;100.00
35291;BME280;21411;50.024;19.220;2022-08-01T01:56:34;98713.98;;;13.33;100.00
35291;BME280;21411;50.024;19.220;2022-08-01T01:59:23;98709.56;;;13.29;100.00
35291;BME280;21411;50.024;19.220;2022-08-01T02:01:52;98708.10;;;13.25;100.00
35291;BME280;21411;50.024;19.220;2022-08-01T02:04:21;98703.45;;;13.20;100.00
35291;BME280;21411;50.024;19.220;2022-08-01T02:06:50;98705.78;;;13.16;100.00
35291;BME280;21411;50.024;19.220;2022-08-01T02:09:19;98705.79;;;13.11;100.00
35291;BME280;21411;50.024;19.220;2022-08-01T02:11:47;98705.52;;;13.08;100.00
35291;BME280;21411;50.024;19.220;2022-08-01T02:14:15;98703.59;;;13.05;100.00
35291;BME280;21411;50.024;19.220;2022-08-01T02:16:47;98701.35;;;13.02;100.00
35291;BME280;21411;50.024;19.220;2022-08-01T02:19:16;98700.81;;;12.98;100.00
35291;BME280;21411;50.024;19.220;2022-08-01T02:21:57;98701.09;;;12.92;100.00
35291;BME280;21411;50.024;19.220;2022-08-01T02:24:36;98700.52;;;12.88;100.00
35291;BME280;21411;50.024;19.220;2022-08-01T02:27:08;98701.64;;;12.85;100.00
35291;BME280;21411;50.024;19.220;2022-08-01T02:29:42;98702.29;;;12.84;100.00
35291;BME280;21411;50.024;19.220;2022-08-01T02:32:18;98701.47;;;12.83;100.00
35291;BME280;21411;50.024;19.220;2022-08-01T02:34:47;98697.54;;;12.81;100.00
35291;BME280;21411;50.024;19.220;2022-08-01T02:37:15;98702.21;;;12.79;100.00
35291;BME280;21411;50.024;19.220;2022-08-01T02:39:44;98701.58;;;12.75;100.00
35291;BME280;21411;50.024;19.220;2022-08-01T02:42:14;98701.73;;;12.71;100.00
35291;BME280;21411;50.024;19.220;2022-08-01T02:44:43;98700.90;;;12.68;100.00
35291;BME280;21411;50.024;19.220;2022-08-01T02:47:10;98703.38;;;12.66;100.00
35291;BME280;21411;50.024;19.220;2022-08-01T02:49:44;98703.05;;;12.63;100.00
35291;BME280;21411;50.024;19.220;2022-08-01T02:52:14;98702.52;;;12.61;100.00
35291;BME280;21411;50.024;19.220;2022-08-01T02:54:41;98702.15;;;12.59;100.00
35291;BME280;21411;50.024;19.220;2022-08-01T02:57:10;98699.53;;;12.57;100.00
35291;BME280;21411;50.024;19.220;2022-08-01T02:59:38;98703.70;;;12.54;100.00
35291;BME280;21411;50.024;19.220;2022-08-01T03:02:05;98703.34;;;12.51;100.00
35291;BME280;21411;50.024;19.220;2022-08-01T03:04:33;98708.70;;;12.49;100.00
35291;BME280;21411;50.024;19.220;2022-08-01T03:07:02;98707.79;;;12.47;100.00
35291;BME280;21411;50.024;19.220;2022-08-01T03:09:30;98716.28;;;12.45;100.00
35291;BME280;21411;50.024;19.220;2022-08-01T03:12:01;98714.70;;;12.45;100.00
35291;BME280;21411;50.024;19.220;2022-08-01T03:14:29;98710.59;;;12.45;100.00
35291;BME280;21411;50.024;19.220;2022-08-01T03:16:57;98708.98;;;12.45;100.00
35291;BME280;21411;50.024;19.220;2022-08-01T03:19:26;98708.63;;;12.45;100.00
35291;BME280;21411;50.024;19.220;2022-08-01T03:21:55;98706.15;;;12.45;100.00
35291;BME280;21411;50.024;19.220;2022-08-01T03:24:23;98709.67;;;12.45;100.00
35291;BME280;21411;50.024;19.220;2022-08-01T03:26:52;98710.19;;;12.46;100.00
35291;BME280;21411;50.024;19.220;2022-08-01T03:29:24;98712.86;;;12.46;100.00
35291;BME280;21411;50.024;19.220;2022-08-01T03:31:51;98711.34;;;12.47;100.00
35291;BME280;21411;50.024;19.220;2022-08-01T03:34:18;98715.71;;;12.48;100.00
35291;BME280;21411;50.024;19.220;2022-08-01T03:36:52;98714.64;;;12.50;100.00
35291;BME280;21411;50.024;19.220;2022-08-01T03:39:22;98718.80;;;12.54;100.00
35291;BME280;21411;50.024;19.220;2022-08-01T03:41:54;98716.27;;;12.75;100.00
35291;BME280;21411;50.024;19.220;2022-08-01T03:44:25;98716.54;;;13.33;100.00
35291;BME280;21411;50.024;19.220;2022-08-01T03:46:58;98716.40;;;13.92;100.00
35291;BME280;21411;50.024;19.220;2022-08-01T03:49:29;98718.30;;;14.61;100.00
35291;BME280;21411;50.024;19.220;2022-08-01T03:51:56;98719.47;;;14.78;100.00
35291;BME280;21411;50.024;19.220;2022-08-01T03:54:25;98723.55;;;15.07;100.00
35291;BME280;21411;50.024;19.220;2022-08-01T03:56:52;98721.77;;;15.83;100.00
35291;BME280;21411;50.024;19.220;2022-08-01T03:59:19;98718.81;;;16.42;100.00
35291;BME280;21411;50.024;19.220;2022-08-01T04:01:46;98719.27;;;17.00;100.00
35291;BME280;21411;50.024;19.220;2022-08-01T04:04:13;98716.05;;;17.53;100.00
35291;BME280;21411;50.024;19.220;2022-08-01T04:06:40;98713.48;;;18.05;100.00
35291;BME280;21411;50.024;19.220;2022-08-01T04:09:07;98718.38;;;18.52;100.00
35291;BME280;21411;50.024;19.220;2022-08-01T04:11:33;98721.67;;;19.01;100.00
35291;BME280;21411;50.024;19.220;2022-08-01T04:14:00;98720.41;;;19.46;100.00
35291;BME280;21411;50.024;19.220;2022-08-01T04:16:25;98722.98;;;19.94;100.00
35291;BME280;21411;50.024;19.220;2022-08-01T04:18:51;98721.91;;;20.38;100.00
35291;BME280;21411;50.024;19.220;2022-08-01T04:21:21;98726.07;;;20.78;100.00
35291;BME280;21411;50.024;19.220;2022-08-01T04:23:48;98720.38;;;21.20;100.00
35291;BME280;21411;50.024;19.220;2022-08-01T04:26:18;98717.58;;;21.58;100.00
35291;BME280;21411;50.024;19.220;2022-08-01T04:28:46;98715.61;;;21.92;100.00
35291;BME280;21411;50.024;19.220;2022-08-01T04:31:14;98714.14;;;22.21;100.00
35291;BME280;21411;50.024;19.220;2022-08-01T04:33:43;98713.38;;;22.50;100.00
35291;BME280;21411;50.024;19.220;2022-08-01T04:36:12;98712.52;;;22.60;100.00
35291;BME280;21411;50.024;19.220;2022-08-01T04:38:42;98714.23;;;22.86;100.00
35291;BME280;21411;50.024;19.220;2022-08-01T04:41:13;98712.55;;;23.09;100.00
35291;BME280;21411;50.024;19.220;2022-08-01T04:43:39;98720.42;;;23.34;100.00
35291;BME280;21411;50.024;19.220;2022-08-01T04:46:07;98716.04;;;23.51;100.00
35291;BME280;21411;50.024;19.220;2022-08-01T04:48:36;98715.02;;;23.57;100.00
35291;BME280;21411;50.024;19.220;2022-08-01T04:51:03;98715.20;;;23.85;100.00
35291;BME280;21411;50.024;19.220;2022-08-01T04:53:29;98718.45;;;24.15;100.00
35291;BME280;21411;50.024;19.220;2022-08-01T04:55:58;98716.95;;;24.38;100.00
35291;BME280;21411;50.024;19.220;2022-08-01T04:58:24;98719.92;;;24.50;100.00
35291;BME280;21411;50.024;19.220;2022-08-01T05:00:50;98723.02;;;24.55;100.00
35291;BME280;21411;50.024;19.220;2022-08-01T05:03:16;98725.63;;;24.59;100.00
35291;BME280;21411;50.024;19.220;2022-08-01T05:05:42;98720.84;;;24.68;100.00
35291;BME280;21411;50.024;19.220;2022-08-01T05:08:08;98719.61;;;24.87;100.00
35291;BME280;21411;50.024;19.220;2022-08-01T05:10:34;98721.59;;;24.98;100.00
35291;BME280;21411;50.024;19.220;2022-08-01T05:13:01;98718.34;;;25.04;100.00
35291;BME280;21411;50.024;19.220;2022-08-01T05:15:26;98722.61;;;25.10;100.00
35291;BME280;21411;50.024;19.220;2022-08-01T05:17:52;98723.31;;;25.08;100.00
35291;BME280;21411;50.024;19.220;2022-08-01T05:20:19;98722.69;;;25.09;100.00
35291;BME280;21411;50.024;19.220;2022-08-01T05:22:45;98716.32;;;25.22;100.00
35291;BME280;21411;50.024;19.220;2022-08-01T05:25:11;98713.21;;;25.32;100.00
35291;BME280;21411;50.024;19.220;2022-08-01T05:27:37;98711.88;;;25.39;100.00
35291;BME280;21411;50.024;19.220;2022-08-01T05:30:07;98715.13;;;25.58;100.00
35291;BME280;21411;50.024;19.220;2022-08-01T05:32:34;98713.47;;;25.67;100.00
35291;BME280;21411;50.024;19.220;2022-08-01T05:35:00;98714.99;;;25.70;100.00
35291;BME280;21411;50.024;19.220;2022-08-01T05:37:26;98716.89;;;25.75;100.00
35291;BME280;21411;50.024;19.220;2022-08-01T05:39:52;98716.30;;;25.86;100.00
35291;BME280;21411;50.024;19.220;2022-08-01T05:42:18;98718.96;;;25.92;100.00
35291;BME280;21411;50.024;19.220;2022-08-01T05:44:44;98719.05;;;26.02;100.00
35291;BME280;21411;50.024;19.220;2022-08-01T05:47:10;98715.83;;;26.10;100.00
35291;BME280;21411;50.024;19.220;2022-08-01T05:49:36;98715.04;;;26.20;100.00
35291;BME280;21411;50.024;19.220;2022-08-01T05:52:02;98715.98;;;26.43;100.00
35291;BME280;21411;50.024;19.220;2022-08-01T05:54:28;98708.25;;;26.63;100.00
35291;BME280;21411;50.024;19.220;2022-08-01T05:56:54;98706.77;;;26.83;100.00
35291;BME280;21411;50.024;19.220;2022-08-01T05:59:25;98712.40;;;27.14;100.00
35291;BME280;21411;50.024;19.220;2022-08-01T06:01:51;98713.29;;;27.11;100.00
35291;BME280;21411;50.024;19.220;2022-08-01T06:04:17;98710.59;;;26.99;100.00
35291;BME280;21411;50.024;19.220;2022-08-01T06:06:43;98709.21;;;26.95;100.00
35291;BME280;21411;50.024;19.220;2022-08-01T06:09:09;98704.72;;;26.94;100.00
35291;BME280;21411;50.024;19.220;2022-08-01T06:11:35;98711.16;;;27.06;100.00
35291;BME280;21411;50.024;19.220;2022-08-01T06:14:01;98709.10;;;27.07;100.00
35291;BME280;21411;50.024;19.220;2022-08-01T06:16:27;98708.47;;;27.19;100.00
35291;BME280;21411;50.024;19.220;2022-08-01T06:18:53;98711.85;;;27.37;100.00
35291;BME280;21411;50.024;19.220;2022-08-01T06:21:19;98717.10;;;27.40;100.00
35291;BME280;21411;50.024;19.220;2022-08-01T06:23:46;98711.73;;;27.26;100.00
35291;BME280;21411;50.024;19.220;2022-08-01T06:26:12;98716.22;;;27.14;100.00
35291;BME280;21411;50.024;19.220;2022-08-01T06:28:38;98716.43;;;27.00;100.00
35291;BME280;21411;50.024;19.220;2022-08-01T06:31:04;98718.10;;;27.05;100.00
35291;BME280;21411;50.024;19.220;2022-08-01T06:33:30;98721.14;;;27.05;100.00
35291;BME280;21411;50.024;19.220;2022-08-01T06:35:56;98722.05;;;27.06;100.00
35291;BME280;21411;50.024;19.220;2022-08-01T06:38:23;98722.91;;;27.01;100.00
35291;BME280;21411;50.024;19.220;2022-08-01T06:40:49;98727.55;;;26.99;100.00
35291;BME280;21411;50.024;19.220;2022-08-01T06:43:15;98726.23;;;27.01;100.00
35291;BME280;21411;50.024;19.220;2022-08-01T06:45:42;98729.08;;;26.95;100.00
35291;BME280;21411;50.024;19.220;2022-08-01T06:48:08;98729.48;;;26.84;100.00
35291;BME280;21411;50.024;19.220;2022-08-01T06:50:34;98730.86;;;26.71;100.00
35291;BME280;21411;50.024;19.220;2022-08-01T06:53:01;98733.58;;;26.80;100.00
35291;BME280;21411;50.024;19.220;2022-08-01T06:55:27;98736.06;;;26.73;100.00
35291;BME280;21411;50.024;19.220;2022-08-01T06:57:54;98734.23;;;26.59;100.00
35291;BME280;21411;50.024;19.220;2022-08-01T07:00:22;98731.27;;;26.73;100.00
35291;BME280;21411;50.024;19.220;2022-08-01T07:02:49;98730.66;;;26.68;100.00
35291;BME280;21411;50.024;19.220;2022-08-01T07:05:15;98733.54;;;26.54;100.00
35291;BME280;21411;50.024;19.220;2022-08-01T07:07:41;98735.19;;;26.53;100.00
35291;BME280;21411;50.024;19.220;2022-08-01T07:10:08;98740.46;;;26.55;100.00
35291;BME280;21411;50.024;19.220;2022-08-01T07:12:35;98733.56;;;26.61;100.00
35291;BME280;21411;50.024;19.220;2022-08-01T07:15:05;98729.05;;;26.70;100.00
35291;BME280;21411;50.024;19.220;2022-08-01T07:17:32;98719.79;;;26.92;100.00
35291;BME280;21411;50.024;19.220;2022-08-01T07:19:58;98721.14;;;26.90;100.00
35291;BME280;21411;50.024;19.220;2022-08-01T07:22:24;98721.85;;;26.71;100.00
35291;BME280;21411;50.024;19.220;2022-08-01T07:24:50;98724.05;;;26.49;100.00
35291;BME280;21411;50.024;19.220;2022-08-01T07:27:16;98724.02;;;26.30;100.00
35291;BME280;21411;50.024;19.220;2022-08-01T07:29:42;98720.90;;;26.02;100.00
35291;BME280;21411;50.024;19.220;2022-08-01T07:32:08;98720.45;;;25.74;100.00
35291;BME280;21411;50.024;19.220;2022-08-01T07:34:34;98719.70;;;25.69;100.00
35291;BME280;21411;50.024;19.220;2022-08-01T07:37:00;98720.19;;;25.56;100.00
35291;BME280;21411;50.024;19.220;2022-08-01T07:39:26;98718.76;;;25.48;100.00
35291;BME280;21411;50.024;19.220;2022-08-01T07:41:52;98720.66;;;25.28;100.00
35291;BME280;21411;50.024;19.220;2022-08-01T07:44:18;98721.20;;;25.12;100.00
35291;BME280;21411;50.024;19.220;2022-08-01T07:46:44;98723.42;;;24.96;100.00
35291;BME280;21411;50.024;19.220;2022-08-01T07:49:10;98721.20;;;24.68;100.00
35291;BME280;21411;50.024;19.220;2022-08-01T07:51:36;98721.48;;;24.52;100.00
35291;BME280;21411;50.024;19.220;2022-08-01T07:54:03;98719.88;;;24.53;100.00
35291;BME280;21411;50.024;19.220;2022-08-01T07:56:29;98719.97;;;24.48;100.00
35291;BME280;21411;50.024;19.220;2022-08-01T07:58:55;98719.52;;;24.41;100.00
35291;BME280;21411;50.024;19.220;2022-08-01T08:01:21;98718.68;;;24.54;100.00
35291;BME280;21411;50.024;19.220;2022-08-01T08:03:47;98717.19;;;24.67;100.00
35291;BME280;21411;50.024;19.220;2022-08-01T08:06:13;98711.30;;;24.81;100.00
35291;BME280;21411;50.024;19.220;2022-08-01T08:08:39;98710.56;;;24.90;100.00
35291;BME280;21411;50.024;19.220;2022-08-01T08:11:05;98708.15;;;24.95;100.00
35291;BME280;21411;50.024;19.220;2022-08-01T08:13:32;98710.21;;;24.96;100.00
35291;BME280;21411;50.024;19.220;2022-08-01T08:15:58;98707.91;;;25.07;100.00
35291;BME280;21411;50.024;19.220;2022-08-01T08:18:25;98704.77;;;25.10;100.00
35291;BME280;21411;50.024;19.220;2022-08-01T08:20:51;98707.99;;;25.05;100.00
35291;BME280;21411;50.024;19.220;2022-08-01T08:23:17;98708.64;;;25.10;100.00
35291;BME280;21411;50.024;19.220;2022-08-01T08:26:02;98709.86;;;25.24;100.00
35291;BME280;21411;50.024;19.220;2022-08-01T08:28:28;98712.17;;;25.38;100.00
35291;BME280;21411;50.024;19.220;2022-08-01T08:30:54;98713.94;;;25.54;100.00
35291;BME280;21411;50.024;19.220;2022-08-01T08:33:20;98711.13;;;25.70;100.00
35291;BME280;21411;50.024;19.220;2022-08-01T08:35:46;98713.44;;;25.86;100.00
35291;BME280;21411;50.024;19.220;2022-08-01T08:38:12;98711.80;;;26.09;100.00
35291;BME280;21411;50.024;19.220;2022-08-01T08:40:39;98711.91;;;26.35;100.00
35291;BME280;21411;50.024;19.220;2022-08-01T08:43:05;98714.93;;;26.50;100.00
35291;BME280;21411;50.024;19.220;2022-08-01T08:45:32;98710.27;;;26.65;100.00
35291;BME280;21411;50.024;19.220;2022-08-01T08:47:59;98712.69;;;26.87;100.00
35291;BME280;21411;50.024;19.220;2022-08-01T08:50:26;98714.19;;;27.20;100.00
35291;BME280;21411;50.024;19.220;2022-08-01T08:52:55;98713.52;;;27.55;100.00
35291;BME280;21411;50.024;19.220;2022-08-01T08:55:22;98712.93;;;27.75;100.00
35291;BME280;21411;50.024;19.220;2022-08-01T08:57:50;98717.77;;;27.68;100.00
35291;BME280;21411;50.024;19.220;2022-08-01T09:00:16;98715.27;;;27.66;100.00
35291;BME280;21411;50.024;19.220;2022-08-01T09:02:44;98717.99;;;27.62;100.00
35291;BME280;21411;50.024;19.220;2022-08-01T09:05:12;98717.72;;;27.75;100.00
35291;BME280;21411;50.024;19.220;2022-08-01T09:07:39;98718.29;;;27.87;100.00
35291;BME280;21411;50.024;19.220;2022-08-01T09:10:06;98715.80;;;27.93;100.00
35291;BME280;21411;50.024;19.220;2022-08-01T09:12:36;98719.20;;;28.00;100.00
35291;BME280;21411;50.024;19.220;2022-08-01T09:15:02;98720.58;;;28.08;100.00
35291;BME280;21411;50.024;19.220;2022-08-01T09:17:42;98721.08;;;28.09;100.00
35291;BME280;21411;50.024;19.220;2022-08-01T09:20:22;98720.69;;;28.15;100.00
35291;BME280;21411;50.024;19.220;2022-08-01T09:22:48;98721.66;;;28.10;100.00
35291;BME280;21411;50.024;19.220;2022-08-01T09:25:15;98728.64;;;27.81;100.00
35291;BME280;21411;50.024;19.220;2022-08-01T09:27:41;98728.83;;;27.76;100.00
35291;BME280;21411;50.024;19.220;2022-08-01T09:30:15;98725.91;;;27.97;100.00
35291;BME280;21411;50.024;19.220;2022-08-01T09:32:57;98727.38;;;28.22;100.00
35291;BME280;21411;50.024;19.220;2022-08-01T09:35:34;98729.77;;;28.35;100.00
35291;BME280;21411;50.024;19.220;2022-08-01T09:38:20;98728.99;;;28.31;100.00
35291;BME280;21411;50.024;19.220;2022-08-01T09:43:14;98734.13;;;28.10;100.00
35291;BME280;21411;50.024;19.220;2022-08-01T09:45:40;98737.56;;;27.96;100.00
35291;BME280;21411;50.024;19.220;2022-08-01T09:48:08;98735.02;;;27.83;100.00
35291;BME280;21411;50.024;19.220;2022-08-01T09:50:49;98738.39;;;27.67;100.00
35291;BME280;21411;50.024;19.220;2022-08-01T09:53:17;98738.60;;;27.67;100.00
35291;BME280;21411;50.024;19.220;2022-08-01T09:55:43;98739.99;;;27.66;100.00
35291;BME280;21411;50.024;19.220;2022-08-01T09:58:11;98739.91;;;27.73;100.00
35291;BME280;21411;50.024;19.220;2022-08-01T10:00:38;98738.48;;;27.71;100.00
35291;BME280;21411;50.024;19.220;2022-08-01T10:03:23;98741.90;;;27.71;100.00
35291;BME280;21411;50.024;19.220;2022-08-01T10:05:50;98739.85;;;27.81;100.00
35291;BME280;21411;50.024;19.220;2022-08-01T10:08:17;98737.46;;;27.87;100.00
35291;BME280;21411;50.024;19.220;2022-08-01T10:13:33;98738.85;;;28.11;100.00
35291;BME280;21411;50.024;19.220;2022-08-01T10:16:00;98738.41;;;28.24;100.00
35291;BME280;21411;50.024;19.220;2022-08-01T10:18:31;98742.13;;;28.28;100.00
35291;BME280;21411;50.024;19.220;2022-08-01T10:21:02;98743.02;;;28.45;100.00
35291;BME280;21411;50.024;19.220;2022-08-01T10:23:36;98736.08;;;28.61;100.00
35291;BME280;21411;50.024;19.220;2022-08-01T10:26:05;98738.46;;;28.73;100.00
35291;BME280;21411;50.024;19.220;2022-08-01T10:28:35;98739.15;;;28.72;100.00
35291;BME280;21411;50.024;19.220;2022-08-01T10:31:01;98739.88;;;28.71;100.00
35291;BME280;21411;50.024;19.220;2022-08-01T10:33:29;98734.83;;;28.71;100.00
35291;BME280;21411;50.024;19.220;2022-08-01T10:35:56;98739.73;;;28.73;100.00
35291;BME280;21411;50.024;19.220;2022-08-01T10:38:22;98737.90;;;28.76;100.00
35291;BME280;21411;50.024;19.220;2022-08-01T10:40:49;98739.10;;;28.76;100.00
35291;BME280;21411;50.024;19.220;2022-08-01T10:43:17;98736.96;;;28.53;100.00
35291;BME280;21411;50.024;19.220;2022-08-01T10:45:43;98739.27;;;28.34;100.00
35291;BME280;21411;50.024;19.220;2022-08-01T10:48:14;98737.73;;;28.25;97.37
35291;BME280;21411;50.024;19.220;2022-08-01T10:50:44;98737.27;;;28.07;93.64
35291;BME280;21411;50.024;19.220;2022-08-01T10:53:19;98735.59;;;28.12;94.06
35291;BME280;21411;50.024;19.220;2022-08-01T10:58:24;98736.33;;;28.25;92.89
35291;BME280;21411;50.024;19.220;2022-08-01T11:04:03;98728.80;;;28.22;94.83
35291;BME280;21411;50.024;19.220;2022-08-01T11:11:30;98731.61;;;28.15;95.17
35291;BME280;21411;50.024;19.220;2022-08-01T11:16:31;98732.67;;;28.02;93.60
35291;BME280;21411;50.024;19.220;2022-08-01T11:18:58;98731.35;;;27.94;93.38
35291;BME280;21411;50.024;19.220;2022-08-01T11:29:41;98732.65;;;28.16;91.77
35291;BME280;21411;50.024;19.220;2022-08-01T11:35:13;98728.98;;;28.10;92.11
35291;BME280;21411;50.024;19.220;2022-08-01T11:37:40;98725.67;;;28.20;91.90
35291;BME280;21411;50.024;19.220;2022-08-01T11:40:26;98729.20;;;28.22;92.12
35291;BME280;21411;50.024;19.220;2022-08-01T11:45:51;98728.28;;;28.40;90.47
35291;BME280;21411;50.024;19.220;2022-08-01T11:48:24;98727.38;;;28.42;90.79
35291;BME280;21411;50.024;19.220;2022-08-01T11:50:54;98721.77;;;28.62;92.40
35291;BME280;21411;50.024;19.220;2022-08-01T11:53:22;98722.94;;;28.80;92.33
35291;BME280;21411;50.024;19.220;2022-08-01T11:55:52;98726.30;;;28.91;92.40
35291;BME280;21411;50.024;19.220;2022-08-01T11:58:23;98727.67;;;29.03;92.49
35291;BME280;21411;50.024;19.220;2022-08-01T12:00:51;98728.61;;;28.99;88.74
35291;BME280;21411;50.024;19.220;2022-08-01T12:03:24;98732.60;;;28.77;89.56
35291;BME280;21411;50.024;19.220;2022-08-01T12:05:51;98728.06;;;28.79;90.39
35291;BME280;21411;50.024;19.220;2022-08-01T12:08:30;98727.70;;;28.85;90.70
35291;BME280;21411;50.024;19.220;2022-08-01T12:11:04;98727.84;;;28.88;91.48
35291;BME280;21411;50.024;19.220;2022-08-01T12:13:41;98728.09;;;28.80;91.58
35291;BME280;21411;50.024;19.220;2022-08-01T12:16:10;98728.77;;;28.51;91.09
35291;BME280;21411;50.024;19.220;2022-08-01T12:18:40;98730.38;;;28.27;91.49
35291;BME280;21411;50.024;19.220;2022-08-01T12:21:07;98736.25;;;28.03;91.03
35291;BME280;21411;50.024;19.220;2022-08-01T12:23:33;98734.48;;;27.74;91.75
35291;BME280;21411;50.024;19.220;2022-08-01T12:25:59;98736.55;;;27.55;92.39
35291;BME280;21411;50.024;19.220;2022-08-01T12:28:27;98738.11;;;27.47;93.42
35291;BME280;21411;50.024;19.220;2022-08-01T12:30:53;98736.38;;;27.46;93.86
35291;BME280;21411;50.024;19.220;2022-08-01T12:33:20;98737.13;;;27.45;94.17
35291;BME280;21411;50.024;19.220;2022-08-01T12:35:46;98736.08;;;27.43;93.65
35291;BME280;21411;50.024;19.220;2022-08-01T12:38:16;98736.57;;;27.45;93.99
35291;BME280;21411;50.024;19.220;2022-08-01T12:40:45;98731.52;;;27.52;93.92
35291;BME280;21411;50.024;19.220;2022-08-01T12:43:17;98732.14;;;27.61;94.04
35291;BME280;21411;50.024;19.220;2022-08-01T12:45:46;98734.15;;;27.73;93.89
35291;BME280;21411;50.024;19.220;2022-08-01T12:48:15;98729.73;;;27.70;94.02
35291;BME280;21411;50.024;19.220;2022-08-01T12:50:47;98732.60;;;27.71;93.62
35291;BME280;21411;50.024;19.220;2022-08-01T12:53:15;98732.42;;;27.72;93.61
35291;BME280;21411;50.024;19.220;2022-08-01T12:55:52;98730.10;;;27.89;93.59
35291;BME280;21411;50.024;19.220;2022-08-01T12:58:19;98723.86;;;28.08;92.69
35291;BME280;21411;50.024;19.220;2022-08-01T13:00:48;98720.05;;;28.17;93.15
35291;BME280;21411;50.024;19.220;2022-08-01T13:03:19;98722.54;;;28.30;92.74
35291;BME280;21411;50.024;19.220;2022-08-01T13:05:52;98718.61;;;28.36;91.91
35291;BME280;21411;50.024;19.220;2022-08-01T13:08:29;98718.52;;;28.33;92.54
35291;BME280;21411;50.024;19.220;2022-08-01T13:11:08;98715.64;;;28.30;92.82
35291;BME280;21411;50.024;19.220;2022-08-01T13:13:46;98710.70;;;28.25;92.89
35291;BME280;21411;50.024;19.220;2022-08-01T13:16:14;98705.48;;;28.18;92.82
35291;BME280;21411;50.024;19.220;2022-08-01T13:18:40;98706.00;;;28.14;93.02
35291;BME280;21411;50.024;19.220;2022-08-01T13:21:16;98707.39;;;28.03;93.05
35291;BME280;21411;50.024;19.220;2022-08-01T13:29:16;98709.23;;;27.97;93.69
35291;BME280;21411;50.024;19.220;2022-08-01T13:31:43;98707.25;;;27.85;94.33
35291;BME280;21411;50.024;19.220;2022-08-01T13:34:10;98705.59;;;27.72;93.88
35291;BME280;21411;50.024;19.220;2022-08-01T13:36:37;98704.13;;;27.62;93.83
35291;BME280;21411;50.024;19.220;2022-08-01T13:39:03;98709.12;;;27.52;92.69
35291;BME280;21411;50.024;19.220;2022-08-01T13:41:48;98707.95;;;27.21;93.11
35291;BME280;21411;50.024;19.220;2022-08-01T13:44:14;98706.90;;;27.06;94.18